Grimshaw, Canada
Current Conditions -  °F | °C
As of 8:00 PM on Monday 20 Oct 2014 (Local Time) from CYPE Reporting Station
Rain Showers Rain Showers  
Wind Chill: 45°   Ceiling: 6500
Heat Index: 48°   Visibility: 15mi
Dew Point: 46°   Wind: 7mph
Humidity: 93%   Direction: 130°SE
Pressure: 29.51"   Gusts: NA
Location:  56.18°N, 117.6°W
Report Text: CYPE 210200Z 13006KT 15SM -SHRA BKN065 BKN080 OVC250 09/08 A2951 RMK SC6AC1CI1 SLP012 DENSITY ALT 2000FT
Loading
Personal Weather Stations






























Interactive Weather Map
Tropical Storm Tracking
New forecast layout! Learn more

10-Day Weather Forecast

Advertisements
Track Severe Weather on mobile